Aérodrome :
LOGIN :

S'inscrire | Disclaimer

   EN    FR    IT 

 










Légende :    VFR   VFR Marginal   IFR   IFR Intensif   IFR Très Intensif
Visi : 
Plafond : 
>= 8 km
>= 3000ft
5 à 8 km
1000 à 3000 ft
1500m à 5 km
500 à 1000 ft
800 à 1500m
200 à 500 ft
< 800m
< 200 ft
Symboles :   Orages  Brouillard  Fortes neiges  Fortes précipitations  Vent > 20 kt
SIGMETs :   Divers  Orages  Givrage  Turbulence  Onde Orograph.  Cendres Volcan.






- Altitude de l'aérodrome : 465 ft
- Code IATA : LEJ


EDDP - Leipzig Halle

DERNIER METAR :
  • 281650Z 09003KT 9999 FEW028 15/11 Q1022 NOSIG

METARs EXPIRÉS :
  • 281620Z 08003KT 9999 FEW032 15/11 Q1022 NOSIG
  • 281550Z VRB02KT 9999 FEW032 17/11 Q1022 NOSIG
  • 281520Z VRB01KT 9999 FEW032 18/10 Q1022 NOSIG
  • 281450Z 05003KT 320V110 9999 FEW032 18/10 Q1022 NOSIG
  • 281420Z VRB01KT 9999 FEW032 18/10 Q1023 NOSIG

TAF TAF EDDP
Valide du 28 à 12h jusqu'au 29 à 12h UTC


281100Z 2812/2912 33005KT 9999 SCT030
BECMG 2815/2818 08005KT
TEMPO 2904/2911 4500 SHRA BKN012 BKN025CB
PROB30
TEMPO 2904/2909 BKN006



MET'MAP, la Météo Aéronautique d'un coup d'oeil ! - Copyright ORBIFLY Décembre 2007 - Disclaimer

ORBIFLY MET'MAP TEAM :

Programmation & Développement : Alexandra Zaïnal
Sur une idée originale de : Baudouin d'Aumeries
Assistance à la programmation : Marc-Olivier Méhu
Soutien technique & logistique : Manuel Goepfert

Contact : metmap@orbifly.com




SOURCES & CREDITS :

   NOAA